createdAt,value
2023-06-04T00:02:26.609Z,48.79
2023-06-04T00:16:01.001Z,48.49
2023-06-04T00:18:28.170Z,48.46
2023-06-04T00:20:55.521Z,48.28
2023-06-04T00:23:22.733Z,48.05
2023-06-04T00:25:50.486Z,48.06
2023-06-04T00:28:17.549Z,48.15
2023-06-04T00:30:44.879Z,48.36
2023-06-04T00:33:13.494Z,48.33
2023-06-04T00:35:40.698Z,48.32
2023-06-04T00:38:07.828Z,48.11
2023-06-04T00:40:35.215Z,48.34
2023-06-04T00:43:02.404Z,48.47
2023-06-04T00:45:32.339Z,48.36
2023-06-04T00:47:59.741Z,48.47
2023-06-04T00:50:28.588Z,48.71
2023-06-04T00:52:56.286Z,48.56
2023-06-04T00:55:23.633Z,48.63
2023-06-04T00:57:50.655Z,49.04
2023-06-04T01:00:18.960Z,49.27
2023-06-04T01:02:52.255Z,49.77
2023-06-04T01:05:30.995Z,49.62
2023-06-04T01:08:00.787Z,49.48
2023-06-04T01:10:28.076Z,49.64
2023-06-04T01:12:55.239Z,49.58
2023-06-04T01:15:23.130Z,49.83
2023-06-04T01:17:54.328Z,49.81
2023-06-04T01:20:29.734Z,49.45
2023-06-04T01:23:21.098Z,49.80
2023-06-04T01:25:50.835Z,50.00
2023-06-04T01:28:18.604Z,49.76
2023-06-04T01:30:47.240Z,50.13
2023-06-04T01:33:16.216Z,50.30
2023-06-04T01:35:44.137Z,50.29
2023-06-04T01:38:11.533Z,50.21
2023-06-04T01:40:40.355Z,50.28
2023-06-04T01:43:07.375Z,50.28
2023-06-04T01:45:34.975Z,50.25
2023-06-04T01:48:03.518Z,50.35
2023-06-04T01:50:31.925Z,50.21
2023-06-04T01:52:59.262Z,50.56
2023-06-04T01:55:27.292Z,50.40
2023-06-04T01:57:55.712Z,50.61
2023-06-04T02:00:23.610Z,50.67
2023-06-04T02:02:50.747Z,50.83
2023-06-04T02:05:18.677Z,50.96
2023-06-04T02:07:47.090Z,51.02
2023-06-04T02:10:16.436Z,51.17
2023-06-04T02:12:56.505Z,51.28
2023-06-04T02:15:24.612Z,51.22
2023-06-04T02:17:51.881Z,51.30
2023-06-04T02:20:19.298Z,51.66
2023-06-04T02:22:46.501Z,51.85
2023-06-04T02:25:13.916Z,52.04
2023-06-04T02:27:41.341Z,52.12
2023-06-04T02:30:11.312Z,52.50
2023-06-04T02:32:38.376Z,52.70
2023-06-04T02:35:06.696Z,52.84
2023-06-04T02:37:33.757Z,52.93
2023-06-04T02:40:01.161Z,52.93
2023-06-04T02:42:28.510Z,53.13
2023-06-04T02:44:55.754Z,53.22
2023-06-04T02:47:24.074Z,53.32
2023-06-04T02:49:51.526Z,53.37
2023-06-04T02:52:18.594Z,53.57
2023-06-04T02:54:45.981Z,53.67
2023-06-04T02:57:12.997Z,53.88
2023-06-04T02:59:40.332Z,54.04
2023-06-04T03:02:07.568Z,54.15
2023-06-04T03:04:36.749Z,54.25
2023-06-04T03:07:03.687Z,54.38
2023-06-04T03:09:31.907Z,54.14
2023-06-04T03:12:02.633Z,54.08
2023-06-04T03:14:33.584Z,54.04
2023-06-04T03:17:02.303Z,54.00
2023-06-04T03:19:29.660Z,53.92
2023-06-04T03:21:57.925Z,54.05
2023-06-04T03:24:25.312Z,53.94
2023-06-04T03:26:52.617Z,53.85
2023-06-04T03:29:19.872Z,53.94
2023-06-04T03:31:47.047Z,54.32
2023-06-04T03:34:14.633Z,54.38
2023-06-04T03:36:41.660Z,54.49
2023-06-04T03:39:10.412Z,54.36
2023-06-04T03:41:37.612Z,54.47
2023-06-04T03:44:04.859Z,54.45
2023-06-04T03:46:34.667Z,54.26
2023-06-04T03:49:02.605Z,54.47
2023-06-04T03:51:29.726Z,54.49
2023-06-04T03:53:59.351Z,54.44
2023-06-04T03:56:30.852Z,54.46
2023-06-04T03:58:58.166Z,54.60
2023-06-04T04:01:25.436Z,54.55
2023-06-04T04:03:53.693Z,54.34
2023-06-04T04:06:21.286Z,54.24
2023-06-04T04:08:49.696Z,54.34
2023-06-04T04:11:17.363Z,53.30
2023-06-04T04:13:47.618Z,51.51
2023-06-04T04:16:14.940Z,51.08
2023-06-04T04:18:44.587Z,51.39
2023-06-04T04:21:12.448Z,51.65
2023-06-04T04:23:43.368Z,52.02
2023-06-04T04:26:17.593Z,52.15
2023-06-04T04:28:46.379Z,51.59
2023-06-04T04:31:13.596Z,50.75
2023-06-04T04:33:41.040Z,47.79
2023-06-04T04:36:13.506Z,45.75
2023-06-04T04:38:41.388Z,43.99
2023-06-04T04:41:09.595Z,42.46
2023-06-04T04:43:40.796Z,40.29
2023-06-04T04:46:09.342Z,39.12
2023-06-04T04:48:36.848Z,37.84
2023-06-04T04:51:03.997Z,36.81
2023-06-04T04:53:31.442Z,35.60
2023-06-04T04:55:59.125Z,34.19
2023-06-04T04:58:26.571Z,33.10
2023-06-04T05:00:53.513Z,32.21
2023-06-04T05:03:22.498Z,32.01
2023-06-04T05:05:49.600Z,31.26
2023-06-04T05:08:17.028Z,30.12
2023-06-04T05:10:44.210Z,29.24
2023-06-04T05:13:12.281Z,29.10
2023-06-04T05:15:40.964Z,29.18
2023-06-04T05:18:08.868Z,27.79
2023-06-04T05:20:38.897Z,27.87
2023-06-04T05:23:06.552Z,27.04
2023-06-04T05:25:34.090Z,26.54
2023-06-04T05:28:01.522Z,27.43
2023-06-04T05:30:28.673Z,28.66
2023-06-04T05:32:56.102Z,29.63
2023-06-04T05:35:23.267Z,31.38
2023-06-04T05:37:55.475Z,32.20
2023-06-04T05:40:23.133Z,32.83
2023-06-04T05:42:50.831Z,32.94
2023-06-04T05:45:18.102Z,34.13
2023-06-04T05:47:45.473Z,34.94
2023-06-04T05:50:12.499Z,34.85
2023-06-04T05:52:40.221Z,35.02
2023-06-04T05:55:10.041Z,35.14
2023-06-04T05:57:37.575Z,35.67
2023-06-04T06:00:11.806Z,35.50
2023-06-04T06:02:42.110Z,35.86
2023-06-04T06:05:11.522Z,35.74
2023-06-04T06:07:39.116Z,36.17
2023-06-04T06:10:10.075Z,36.38
2023-06-04T06:12:46.168Z,36.81
2023-06-04T06:15:18.824Z,35.97
2023-06-04T06:17:46.742Z,37.14
2023-06-04T06:20:18.953Z,37.62
2023-06-04T06:22:48.196Z,37.21
2023-06-04T06:25:27.552Z,37.10
2023-06-04T06:27:54.940Z,37.57
2023-06-04T06:30:25.346Z,37.21
2023-06-04T06:32:56.492Z,37.28
2023-06-04T06:35:24.148Z,37.47
2023-06-04T06:37:56.354Z,37.31
2023-06-04T06:40:24.883Z,37.15
2023-06-04T06:42:55.339Z,37.58
2023-06-04T06:45:27.547Z,37.50
2023-06-04T06:47:55.215Z,37.10
2023-06-04T06:50:22.361Z,38.00
2023-06-04T06:52:54.694Z,38.58
2023-06-04T06:55:22.013Z,38.49
2023-06-04T06:57:51.013Z,38.98
2023-06-04T07:00:21.074Z,39.41
2023-06-04T07:02:48.478Z,38.86
2023-06-04T07:05:18.147Z,39.22
2023-06-04T07:07:48.997Z,38.94
2023-06-04T07:10:18.159Z,38.94
2023-06-04T07:13:14.251Z,38.53
2023-06-04T07:15:46.147Z,38.79
2023-06-04T07:18:15.474Z,38.60
2023-06-04T07:20:51.236Z,38.45
2023-06-04T07:23:23.462Z,38.83
2023-06-04T07:28:44.496Z,38.59
2023-06-04T07:31:18.244Z,38.77
2023-06-04T07:33:50.659Z,39.45
2023-06-04T07:36:18.028Z,39.45
2023-06-04T07:38:45.501Z,39.87
2023-06-04T07:41:12.721Z,39.76
2023-06-04T07:43:44.403Z,39.43
2023-06-04T07:46:12.180Z,39.33
2023-06-04T07:48:39.604Z,38.97
2023-06-04T07:51:06.889Z,38.59
2023-06-04T07:53:34.674Z,39.09
2023-06-04T07:56:01.690Z,38.97
2023-06-04T07:58:31.605Z,39.05
2023-06-04T08:01:00.111Z,39.71
2023-06-04T08:03:31.444Z,39.45
2023-06-04T08:06:02.286Z,39.47
2023-06-04T08:08:34.301Z,39.45
2023-06-04T08:11:01.302Z,39.26
2023-06-04T08:13:28.768Z,39.42
2023-06-04T08:15:56.010Z,39.47
2023-06-04T08:18:27.420Z,39.28
2023-06-04T08:20:55.633Z,38.77
2023-06-04T08:23:23.009Z,38.60
2023-06-04T08:25:51.778Z,39.45
2023-06-04T08:28:20.493Z,38.95
2023-06-04T08:30:48.016Z,38.54
2023-06-04T08:33:15.646Z,39.44
2023-06-04T08:35:44.270Z,39.53
2023-06-04T08:38:11.600Z,38.74
2023-06-04T08:40:38.896Z,39.32
2023-06-04T08:43:06.800Z,39.72
2023-06-04T08:45:37.931Z,38.58
2023-06-04T08:48:11.076Z,38.35
2023-06-04T08:50:43.425Z,37.80
2023-06-04T08:53:16.572Z,38.01
2023-06-04T08:55:44.142Z,37.05
2023-06-04T08:58:12.383Z,36.60
2023-06-04T09:00:39.468Z,36.43
2023-06-04T09:03:07.409Z,37.93
2023-06-04T09:05:38.963Z,38.06
2023-06-04T09:08:12.404Z,36.37
2023-06-04T09:10:42.200Z,35.83
2023-06-04T09:13:10.969Z,35.28
2023-06-04T09:15:38.054Z,34.29
2023-06-04T09:18:08.279Z,35.10
2023-06-04T09:20:37.394Z,35.24
2023-06-04T09:23:13.999Z,35.59
2023-06-04T09:25:45.011Z,36.64
2023-06-04T09:28:12.449Z,36.38
2023-06-04T09:30:39.644Z,35.63
2023-06-04T09:33:10.521Z,35.07
2023-06-04T09:35:38.015Z,34.92
2023-06-04T09:38:06.381Z,33.70
2023-06-04T09:40:38.267Z,35.47
2023-06-04T09:43:07.341Z,35.93
2023-06-04T09:45:38.567Z,35.78
2023-06-04T09:48:09.342Z,35.87
2023-06-04T09:50:43.166Z,35.90
2023-06-04T09:53:17.523Z,36.66
2023-06-04T09:55:44.666Z,36.89
2023-06-04T09:58:14.450Z,37.15
2023-06-04T10:00:42.834Z,37.58
2023-06-04T10:03:15.142Z,37.93
2023-06-04T10:05:42.656Z,38.27
2023-06-04T10:08:14.250Z,37.33
2023-06-04T10:10:41.575Z,36.65
2023-06-04T10:13:17.918Z,36.78
2023-06-04T10:15:46.023Z,37.01
2023-06-04T10:18:15.413Z,37.04
2023-06-04T10:20:42.857Z,37.28
2023-06-04T10:23:10.452Z,37.10
2023-06-04T10:25:37.627Z,37.24
2023-06-04T10:28:05.448Z,37.41
2023-06-04T10:30:33.921Z,37.76
2023-06-04T10:33:01.865Z,38.01
2023-06-04T10:35:32.792Z,37.79
2023-06-04T10:38:10.844Z,37.93
2023-06-04T10:40:38.190Z,38.20
2023-06-04T10:43:07.262Z,37.72
2023-06-04T10:45:36.384Z,37.86
2023-06-04T10:48:04.478Z,38.09
2023-06-04T10:50:33.028Z,37.43
2023-06-04T10:53:03.881Z,37.55
2023-06-04T10:55:32.095Z,37.35
2023-06-04T10:57:59.761Z,37.14
2023-06-04T11:00:38.178Z,36.86
2023-06-04T11:03:09.357Z,36.56
2023-06-04T11:05:37.889Z,36.76
2023-06-04T11:08:06.809Z,36.85
2023-06-04T11:10:35.875Z,36.16
2023-06-04T11:13:08.329Z,36.18
2023-06-04T11:15:42.621Z,35.93
2023-06-04T11:18:15.402Z,36.21
2023-06-04T11:20:43.684Z,36.17
2023-06-04T11:23:13.514Z,36.29
2023-06-04T11:25:41.844Z,36.05
2023-06-04T11:28:09.414Z,36.24
2023-06-04T11:30:36.727Z,36.08
2023-06-04T11:33:06.801Z,36.09
2023-06-04T11:35:41.522Z,35.62
2023-06-04T11:38:10.452Z,35.24
2023-06-04T11:40:37.829Z,35.29
2023-06-04T11:43:06.346Z,35.30
2023-06-04T11:45:33.192Z,34.69
2023-06-04T11:48:00.718Z,34.27
2023-06-04T11:50:30.208Z,34.03
2023-06-04T11:53:01.325Z,33.29
2023-06-04T11:55:28.636Z,33.88
2023-06-04T11:57:56.204Z,34.41
2023-06-04T12:00:23.468Z,34.96
2023-06-04T12:02:53.992Z,35.18
2023-06-04T12:05:24.143Z,35.04
2023-06-04T12:07:53.175Z,35.04
2023-06-04T12:10:21.103Z,35.05
2023-06-04T12:12:56.580Z,35.43
2023-06-04T12:15:26.507Z,36.07
2023-06-04T12:17:55.595Z,35.78
2023-06-04T12:20:34.652Z,35.23
2023-06-04T12:23:03.829Z,35.67
2023-06-04T12:25:32.266Z,35.65
2023-06-04T12:27:59.828Z,35.62
2023-06-04T12:30:36.726Z,35.74
2023-06-04T12:33:09.331Z,35.66
2023-06-04T12:35:36.679Z,35.90
2023-06-04T12:38:10.638Z,35.72
2023-06-04T12:40:38.038Z,35.95
2023-06-04T12:43:06.903Z,36.29
2023-06-04T12:45:33.981Z,35.77
2023-06-04T12:48:01.544Z,35.98
2023-06-04T12:50:30.065Z,35.14
2023-06-04T12:52:57.828Z,35.37
2023-06-04T12:55:28.236Z,34.85
2023-06-04T12:57:55.953Z,35.28
2023-06-04T13:00:23.463Z,35.26
2023-06-04T13:02:52.137Z,35.34
2023-06-04T13:05:19.336Z,35.80
2023-06-04T13:07:46.807Z,35.91
2023-06-04T13:10:14.090Z,35.33
2023-06-04T13:12:42.870Z,36.33
2023-06-04T13:15:10.128Z,36.99
2023-06-04T13:17:37.729Z,36.93
2023-06-04T13:20:06.340Z,37.52
2023-06-04T13:22:34.066Z,37.22
2023-06-04T13:25:01.377Z,37.61
2023-06-04T13:27:28.895Z,37.03
2023-06-04T13:29:57.465Z,36.87
2023-06-04T13:32:25.032Z,36.83
2023-06-04T13:34:52.360Z,36.52
2023-06-04T13:37:19.651Z,36.96
2023-06-04T13:39:46.594Z,36.89
2023-06-04T13:42:14.035Z,36.67
2023-06-04T13:44:41.080Z,36.73
2023-06-04T13:47:09.906Z,37.33
2023-06-04T13:49:37.023Z,37.23
2023-06-04T13:52:04.609Z,37.44
2023-06-04T13:54:32.718Z,37.17
2023-06-04T13:57:03.332Z,37.20
2023-06-04T13:59:31.381Z,37.40
2023-06-04T14:01:58.696Z,37.66
2023-06-04T14:04:27.257Z,37.74
2023-06-04T14:06:54.569Z,37.73
2023-06-04T14:09:21.928Z,37.51
2023-06-04T14:11:51.553Z,36.71
2023-06-04T14:14:19.222Z,36.32
2023-06-04T14:16:46.987Z,36.39
2023-06-04T14:19:14.742Z,36.44
2023-06-04T14:21:44.733Z,37.20
2023-06-04T14:24:12.253Z,37.73
2023-06-04T14:26:39.723Z,37.89
2023-06-04T14:29:06.772Z,38.13
2023-06-04T14:31:34.182Z,38.15
2023-06-04T14:34:01.532Z,37.94
2023-06-04T14:36:28.913Z,38.05
2023-06-04T14:38:58.137Z,37.86
2023-06-04T14:41:25.483Z,37.24
2023-06-04T14:43:52.593Z,37.53
2023-06-04T14:46:20.028Z,37.30
2023-06-04T14:48:47.254Z,37.01
2023-06-04T14:51:14.811Z,36.45
2023-06-04T14:53:42.120Z,36.70
2023-06-04T14:56:11.149Z,36.93
2023-06-04T14:58:38.330Z,36.82
2023-06-04T15:01:06.214Z,37.03
2023-06-04T15:03:33.938Z,37.06
2023-06-04T15:06:18.301Z,36.88
2023-06-04T15:08:46.203Z,36.82
2023-06-04T15:11:15.694Z,36.75
2023-06-04T15:13:42.687Z,36.72
2023-06-04T15:16:10.053Z,36.46
2023-06-04T15:18:37.208Z,36.69
2023-06-04T15:21:04.789Z,37.06
2023-06-04T15:23:41.851Z,37.66
2023-06-04T15:26:36.673Z,37.70
2023-06-04T15:29:10.797Z,37.35
2023-06-04T15:32:01.005Z,37.67
2023-06-04T15:34:36.809Z,37.77
2023-06-04T15:37:24.181Z,38.03
2023-06-04T15:39:59.392Z,38.20
2023-06-04T15:42:48.167Z,38.05
2023-06-04T15:45:25.413Z,38.41
2023-06-04T15:48:12.207Z,38.85
2023-06-04T15:50:45.931Z,39.17
2023-06-04T15:53:33.188Z,39.00
2023-06-04T15:56:06.692Z,39.25
2023-06-04T15:58:56.197Z,39.07
2023-06-04T16:01:30.145Z,38.97
2023-06-04T16:04:24.141Z,39.49
2023-06-04T16:07:18.186Z,39.60
2023-06-04T16:10:05.192Z,39.37
2023-06-04T16:12:40.317Z,39.71
2023-06-04T16:15:29.196Z,39.48
2023-06-04T16:18:11.335Z,39.89
2023-06-04T16:21:08.268Z,39.85
2023-06-04T16:23:57.972Z,40.32
2023-06-04T16:26:39.253Z,40.30
2023-06-04T16:29:33.258Z,40.14
2023-06-04T16:32:21.163Z,39.76
2023-06-04T16:34:55.315Z,39.70
2023-06-04T16:37:42.260Z,39.63
2023-06-04T16:40:16.376Z,39.38
2023-06-04T16:43:03.230Z,39.53
2023-06-04T16:45:36.302Z,39.32
2023-06-04T16:48:24.217Z,39.25
2023-06-04T16:50:57.276Z,39.02
2023-06-04T16:53:44.197Z,38.83
2023-06-04T16:56:22.187Z,39.21
2023-06-04T16:59:11.230Z,39.02
2023-06-04T17:01:45.391Z,39.68
2023-06-04T17:04:33.234Z,39.42
2023-06-04T17:07:09.925Z,39.81
2023-06-04T17:09:57.148Z,39.48
2023-06-04T17:12:30.229Z,39.56
2023-06-04T17:15:19.151Z,39.39
2023-06-04T17:17:59.283Z,39.94
2023-06-04T17:20:54.131Z,39.56
2023-06-04T17:23:41.373Z,39.76
2023-06-04T17:26:15.739Z,39.51
2023-06-04T17:29:02.223Z,39.79
2023-06-04T17:31:36.303Z,40.00
2023-06-04T17:34:23.139Z,40.30
2023-06-04T17:37:05.146Z,40.62
2023-06-04T17:40:01.763Z,40.56
2023-06-04T17:42:54.357Z,39.72
2023-06-04T17:45:28.385Z,39.08
2023-06-04T17:48:15.158Z,38.33
2023-06-04T17:50:49.331Z,37.55
2023-06-04T17:53:39.152Z,37.82
2023-06-04T17:56:12.452Z,37.60
2023-06-04T17:58:59.153Z,37.83
2023-06-04T18:01:40.177Z,37.80
2023-06-04T18:04:34.168Z,37.53
2023-06-04T18:07:23.190Z,37.76
2023-06-04T18:09:58.245Z,38.22
2023-06-04T18:12:45.180Z,39.34
2023-06-04T18:15:19.415Z,40.04
2023-06-04T18:18:06.248Z,40.61
2023-06-04T18:20:41.970Z,40.94
2023-06-04T18:23:29.205Z,41.45
2023-06-04T18:26:08.411Z,41.85
2023-06-04T18:28:55.176Z,41.94
2023-06-04T18:31:36.273Z,42.33
2023-06-04T18:34:31.180Z,42.85
2023-06-04T18:37:20.996Z,42.95
2023-06-04T18:39:55.083Z,43.30
2023-06-04T18:42:45.282Z,43.54
2023-06-04T18:45:22.268Z,44.14
2023-06-04T18:48:09.305Z,44.21
2023-06-04T18:50:45.473Z,44.78
2023-06-04T18:53:36.404Z,45.19
2023-06-04T18:56:12.501Z,45.36
2023-06-04T18:59:01.203Z,45.60
2023-06-04T19:01:34.366Z,46.24
2023-06-04T19:04:21.206Z,46.16
2023-06-04T19:07:08.188Z,46.21
2023-06-04T19:09:41.749Z,46.54
2023-06-04T19:12:28.153Z,46.38
2023-06-04T19:15:03.228Z,46.80
2023-06-04T19:17:51.224Z,46.87
2023-06-04T19:20:27.960Z,47.43
2023-06-04T19:23:15.194Z,47.43
2023-06-04T19:25:48.714Z,47.11
2023-06-04T19:28:36.142Z,47.02
2023-06-04T19:31:11.252Z,47.20
2023-06-04T19:33:58.169Z,47.37
2023-06-04T19:36:38.133Z,47.53
2023-06-04T19:39:18.233Z,47.54
2023-06-04T19:41:58.246Z,47.71
2023-06-04T19:44:39.247Z,48.00
2023-06-04T19:47:21.170Z,48.27
2023-06-04T19:50:01.273Z,48.18
2023-06-04T19:52:41.182Z,48.48
2023-06-04T19:55:21.584Z,48.19
2023-06-04T19:58:03.215Z,48.42
2023-06-04T20:00:43.989Z,48.71
2023-06-04T20:03:26.271Z,48.96
2023-06-04T20:06:20.160Z,48.74
2023-06-04T20:09:15.164Z,49.17
2023-06-04T20:12:09.190Z,49.21
2023-06-04T20:14:57.125Z,49.69
2023-06-04T20:17:37.263Z,50.07
2023-06-04T20:20:35.149Z,50.07
2023-06-04T20:23:22.144Z,50.38
2023-06-04T20:26:06.240Z,50.06
2023-06-04T20:29:02.116Z,50.45
2023-06-04T20:31:49.158Z,50.21
2023-06-04T20:34:24.311Z,50.67
2023-06-04T20:37:12.129Z,50.65
2023-06-04T20:39:48.748Z,50.46
2023-06-04T20:42:35.138Z,50.46
2023-06-04T20:45:08.256Z,50.58
2023-06-04T20:47:55.205Z,51.00
2023-06-04T20:50:29.299Z,50.95
2023-06-04T20:53:18.203Z,50.80
2023-06-04T20:55:51.345Z,50.90
2023-06-04T20:58:38.307Z,50.95
2023-06-04T21:01:12.245Z,51.09
2023-06-04T21:04:01.293Z,51.14
2023-06-04T21:06:42.019Z,51.33
2023-06-04T21:09:24.120Z,51.37
2023-06-04T21:12:11.223Z,51.48
2023-06-04T21:14:46.842Z,51.28
2023-06-04T21:17:37.222Z,51.54
2023-06-04T21:20:11.464Z,51.63
2023-06-04T21:22:58.123Z,52.02
2023-06-04T21:25:33.906Z,52.06
2023-06-04T21:28:20.108Z,52.46
2023-06-04T21:30:53.805Z,52.65
2023-06-04T21:33:40.117Z,52.74
2023-06-04T21:36:14.961Z,52.91
2023-06-04T21:39:02.137Z,52.92
2023-06-04T21:41:37.098Z,53.02
2023-06-04T21:44:24.165Z,52.80
2023-06-04T21:46:58.692Z,52.75
2023-06-04T21:49:45.172Z,52.63
2023-06-04T21:52:25.499Z,52.62
2023-06-04T21:55:13.372Z,52.83
2023-06-04T21:57:49.376Z,52.61
2023-06-04T22:00:56.866Z,52.82
2023-06-04T22:03:39.998Z,53.26
2023-06-04T22:06:47.230Z,53.84
2023-06-04T22:09:46.178Z,54.06
2023-06-04T22:12:36.173Z,54.25
2023-06-04T22:15:15.239Z,54.54
2023-06-04T22:18:02.187Z,54.96
2023-06-04T22:20:36.246Z,54.84
2023-06-04T22:23:24.189Z,54.82
2023-06-04T22:26:10.003Z,54.96
2023-06-04T22:29:09.139Z,55.06
2023-06-04T22:32:04.092Z,55.54
2023-06-04T22:34:51.098Z,55.54
2023-06-04T22:37:25.405Z,55.48
2023-06-04T22:40:14.162Z,55.08
2023-06-04T22:42:51.269Z,54.88
2023-06-04T22:45:38.154Z,55.05
2023-06-04T22:48:14.238Z,55.61
2023-06-04T22:51:05.178Z,55.75
2023-06-04T22:53:46.159Z,56.09
2023-06-04T22:56:40.094Z,55.89
2023-06-04T22:59:27.129Z,55.69
2023-06-04T23:02:01.400Z,55.46
2023-06-04T23:04:51.127Z,55.58
2023-06-04T23:07:38.130Z,55.45
2023-06-04T23:10:18.165Z,55.43
2023-06-04T23:12:58.340Z,55.22
2023-06-04T23:15:40.175Z,55.02
2023-06-04T23:18:20.186Z,55.08
2023-06-04T23:21:02.180Z,54.82
2023-06-04T23:23:43.248Z,54.57
2023-06-04T23:26:30.102Z,54.47
2023-06-04T23:29:03.396Z,54.51
2023-06-04T23:31:50.220Z,54.85
2023-06-04T23:34:26.232Z,55.09
2023-06-04T23:37:15.132Z,55.14
2023-06-04T23:39:56.246Z,54.97
2023-06-04T23:42:50.084Z,55.23
2023-06-04T23:45:39.192Z,55.38
2023-06-04T23:48:13.380Z,55.54
2023-06-04T23:51:00.174Z,55.53
2023-06-04T23:53:35.295Z,55.73
2023-06-04T23:56:27.124Z,55.83
2023-06-04T23:59:01.378Z,55.66
